createdAt,value
2022-12-03T00:00:22.603Z,17.10
2022-12-03T00:03:11.029Z,17.30
2022-12-03T00:05:41.876Z,18.20
2022-12-03T00:08:17.053Z,19.60
2022-12-03T00:10:45.307Z,21.00
2022-12-03T00:13:13.560Z,21.20
2022-12-03T00:15:41.868Z,18.60
2022-12-03T00:18:10.177Z,19.50
2022-12-03T00:20:38.441Z,18.40
2022-12-03T00:23:06.664Z,19.20
2022-12-03T00:25:35.043Z,20.90
2022-12-03T00:28:03.369Z,17.20
2022-12-03T00:30:31.607Z,19.80
2022-12-03T00:32:59.881Z,19.50
2022-12-03T00:35:29.695Z,18.50
2022-12-03T00:37:57.968Z,17.90
2022-12-03T00:40:26.238Z,19.30
2022-12-03T00:42:54.486Z,19.20
2022-12-03T00:45:22.793Z,18.60
2022-12-03T00:47:51.075Z,17.00
2022-12-03T00:50:19.383Z,17.70
2022-12-03T00:52:47.592Z,17.70
2022-12-03T00:55:16.676Z,17.60
2022-12-03T00:57:44.965Z,16.90
2022-12-03T01:00:13.870Z,17.00
2022-12-03T01:02:42.195Z,16.90
2022-12-03T01:05:10.574Z,16.50
2022-12-03T01:07:38.910Z,16.40
2022-12-03T01:10:07.893Z,17.20
2022-12-03T01:12:36.239Z,17.20
2022-12-03T01:15:05.666Z,16.60
2022-12-03T01:17:33.942Z,17.80
2022-12-03T01:20:03.326Z,17.40
2022-12-03T01:22:31.613Z,17.80
2022-12-03T01:24:59.886Z,18.10
2022-12-03T01:27:28.119Z,18.60
2022-12-03T01:29:56.314Z,17.30
2022-12-03T01:32:24.505Z,17.70
2022-12-03T01:34:55.594Z,19.20
2022-12-03T01:37:26.054Z,18.10
2022-12-03T01:39:54.541Z,20.30
2022-12-03T01:42:26.375Z,19.90
2022-12-03T01:44:58.327Z,18.70
2022-12-03T01:47:31.822Z,20.10
2022-12-03T01:50:11.687Z,21.20
2022-12-03T01:52:41.020Z,21.20
2022-12-03T01:55:18.148Z,20.00
2022-12-03T01:57:50.245Z,18.70
2022-12-03T02:00:21.777Z,17.60
2022-12-03T02:02:53.535Z,18.40
2022-12-03T02:05:27.734Z,19.40
2022-12-03T02:07:56.854Z,20.30
2022-12-03T02:10:36.325Z,19.70
2022-12-03T02:13:11.105Z,20.10
2022-12-03T02:15:40.583Z,17.80
2022-12-03T02:18:10.047Z,19.40
2022-12-03T02:21:05.000Z,18.90
2022-12-03T02:23:42.994Z,18.50
2022-12-03T02:26:11.357Z,17.50
2022-12-03T02:28:39.974Z,19.20
2022-12-03T02:31:08.527Z,19.00
2022-12-03T02:33:36.925Z,20.30
2022-12-03T02:36:05.720Z,17.90
2022-12-03T02:38:35.840Z,16.40
2022-12-03T02:41:08.583Z,19.80
2022-12-03T02:43:37.106Z,20.00
2022-12-03T02:46:08.748Z,17.90
2022-12-03T02:48:40.138Z,18.90
2022-12-03T02:51:11.038Z,17.80
2022-12-03T02:56:14.183Z,13.00
2022-12-03T02:58:45.224Z,18.50
2022-12-03T03:03:45.823Z,14.10
2022-12-03T03:06:15.940Z,16.70
2022-12-03T03:08:44.341Z,18.40
2022-12-03T03:11:12.754Z,17.50
2022-12-03T03:13:41.240Z,17.70
2022-12-03T03:16:10.067Z,16.30
2022-12-03T03:18:38.824Z,18.40
2022-12-03T03:21:07.236Z,17.30
2022-12-03T03:23:35.451Z,17.90
2022-12-03T03:26:08.941Z,18.50
2022-12-03T03:28:40.427Z,16.70
2022-12-03T03:31:11.443Z,16.90
2022-12-03T03:33:41.771Z,15.80
2022-12-03T03:36:10.409Z,15.30
2022-12-03T03:38:39.428Z,17.00
2022-12-03T03:41:09.504Z,18.70
2022-12-03T03:43:39.058Z,18.00
2022-12-03T03:46:08.140Z,19.50
2022-12-03T03:48:36.708Z,18.60
2022-12-03T03:51:09.756Z,17.90
2022-12-03T03:53:44.457Z,16.00
2022-12-03T03:56:12.788Z,14.50
2022-12-03T03:58:41.397Z,13.40
2022-12-03T04:01:12.694Z,13.80
2022-12-03T04:03:41.341Z,12.60
2022-12-03T04:06:10.059Z,12.00
2022-12-03T04:08:38.252Z,12.70
2022-12-03T04:11:25.382Z,14.50
2022-12-03T04:13:53.663Z,14.20
2022-12-03T04:16:22.014Z,15.00
2022-12-03T04:18:50.982Z,15.40
2022-12-03T04:21:41.136Z,16.70
2022-12-03T04:24:11.288Z,16.30
2022-12-03T04:26:58.100Z,14.60
2022-12-03T04:29:26.389Z,14.20
2022-12-03T04:32:13.045Z,16.20
2022-12-03T04:34:59.694Z,15.80
2022-12-03T04:37:28.042Z,16.70
2022-12-03T04:39:56.308Z,17.40
2022-12-03T04:42:24.516Z,18.00
2022-12-03T04:44:53.163Z,19.00
2022-12-03T04:47:22.059Z,19.80
2022-12-03T04:49:51.841Z,15.30
2022-12-03T04:52:21.251Z,14.40
2022-12-03T04:54:49.488Z,18.10
2022-12-03T04:57:18.037Z,15.30
2022-12-03T04:59:46.331Z,14.80
2022-12-03T05:02:14.734Z,16.70
2022-12-03T05:04:43.936Z,15.60
2022-12-03T05:07:12.430Z,17.00
2022-12-03T05:09:40.651Z,14.40
2022-12-03T05:12:08.940Z,13.50
2022-12-03T05:14:37.247Z,15.50
2022-12-03T05:17:05.593Z,16.80
2022-12-03T05:19:52.243Z,15.30
2022-12-03T05:22:20.486Z,18.60
2022-12-03T05:24:48.720Z,19.20
2022-12-03T05:27:23.187Z,17.10
2022-12-03T05:29:53.048Z,19.30
2022-12-03T05:32:21.444Z,19.70
2022-12-03T05:34:49.756Z,19.10
2022-12-03T05:37:17.995Z,17.80
2022-12-03T05:39:46.212Z,17.30
2022-12-03T05:42:33.211Z,18.80
2022-12-03T05:45:01.412Z,16.60
2022-12-03T05:47:29.645Z,18.10
2022-12-03T05:49:57.950Z,18.80
2022-12-03T05:52:26.137Z,19.00
2022-12-03T05:54:55.474Z,18.50
2022-12-03T05:57:24.012Z,17.50
2022-12-03T05:59:52.210Z,18.50
2022-12-03T06:02:20.639Z,18.20
2022-12-03T06:04:49.305Z,17.80
2022-12-03T06:07:17.555Z,17.20
2022-12-03T06:09:46.201Z,17.30
2022-12-03T06:12:14.481Z,17.60
2022-12-03T06:14:42.718Z,18.30
2022-12-03T06:17:11.068Z,17.50
2022-12-03T06:19:39.352Z,18.90
2022-12-03T06:22:07.622Z,17.60
2022-12-03T06:24:35.849Z,17.20
2022-12-03T06:27:05.488Z,19.50
2022-12-03T06:29:33.768Z,18.90
2022-12-03T06:32:02.362Z,19.80
2022-12-03T06:34:31.038Z,17.70
2022-12-03T06:36:59.308Z,19.00
2022-12-03T06:39:27.752Z,17.90
2022-12-03T06:41:56.043Z,17.10
2022-12-03T06:44:24.359Z,18.30
2022-12-03T06:46:52.770Z,20.10
2022-12-03T06:49:21.225Z,22.10
2022-12-03T06:51:49.458Z,21.30
2022-12-03T06:54:17.769Z,21.30
2022-12-03T06:56:47.260Z,22.50
2022-12-03T06:59:15.564Z,22.00
2022-12-03T07:01:43.812Z,28.20
2022-12-03T07:04:12.110Z,25.20
2022-12-03T07:06:40.288Z,25.00
2022-12-03T07:09:08.554Z,24.50
2022-12-03T07:11:40.635Z,23.30
2022-12-03T07:14:11.388Z,24.50
2022-12-03T07:16:40.634Z,27.10
2022-12-03T07:19:09.877Z,27.50
2022-12-03T07:21:38.547Z,23.20
2022-12-03T07:24:07.104Z,24.80
2022-12-03T07:26:35.717Z,24.70
2022-12-03T07:29:04.304Z,24.30
2022-12-03T07:31:32.706Z,25.20
2022-12-03T07:34:02.448Z,25.90
2022-12-03T07:36:30.744Z,24.20
2022-12-03T07:38:58.992Z,23.80
2022-12-03T07:41:27.290Z,23.30
2022-12-03T07:43:55.545Z,23.20
2022-12-03T07:46:23.955Z,23.80
2022-12-03T07:48:52.308Z,26.30
2022-12-03T07:51:20.576Z,26.10
2022-12-03T07:53:48.863Z,24.00
2022-12-03T07:56:17.071Z,23.70
2022-12-03T07:58:45.300Z,24.30
2022-12-03T08:01:13.712Z,24.20
2022-12-03T08:03:43.167Z,24.90
2022-12-03T08:06:11.470Z,25.60
2022-12-03T08:08:40.102Z,25.70
2022-12-03T08:11:14.004Z,28.30
2022-12-03T08:13:42.626Z,27.00
2022-12-03T08:16:17.003Z,23.70
2022-12-03T08:18:46.638Z,27.40
2022-12-03T08:21:18.293Z,27.30
2022-12-03T08:23:46.625Z,24.70
2022-12-03T08:26:23.293Z,24.50
2022-12-03T08:28:53.204Z,26.30
2022-12-03T08:31:32.280Z,27.00
2022-12-03T08:34:21.070Z,18.00
2022-12-03T08:36:59.330Z,27.20
2022-12-03T08:39:37.995Z,28.10
2022-12-03T08:42:43.344Z,25.90
2022-12-03T08:45:29.719Z,22.80
2022-12-03T08:48:18.853Z,21.20
2022-12-03T08:50:47.586Z,21.50
2022-12-03T08:53:38.516Z,23.20
2022-12-03T08:56:23.838Z,23.70
2022-12-03T08:59:31.079Z,25.40
2022-12-03T09:01:59.980Z,27.00
2022-12-03T09:04:46.308Z,22.30
2022-12-03T09:07:14.546Z,23.70
2022-12-03T09:09:42.794Z,25.60
2022-12-03T09:12:11.013Z,24.40
2022-12-03T09:14:39.324Z,24.20
2022-12-03T09:17:07.741Z,22.90
2022-12-03T09:19:38.978Z,26.80
2022-12-03T09:22:09.632Z,23.50
2022-12-03T09:24:37.934Z,26.90
2022-12-03T09:27:06.148Z,24.20
2022-12-03T09:29:34.515Z,24.60
2022-12-03T09:32:02.918Z,25.90
2022-12-03T09:34:31.273Z,24.90
2022-12-03T09:36:59.622Z,25.20
2022-12-03T09:39:27.876Z,24.50
2022-12-03T09:41:56.351Z,23.10
2022-12-03T09:44:24.708Z,26.30
2022-12-03T09:46:53.036Z,24.70
2022-12-03T09:49:21.398Z,25.80
2022-12-03T09:51:49.693Z,24.70
2022-12-03T09:54:26.256Z,25.40
2022-12-03T09:56:55.989Z,27.70
2022-12-03T09:59:27.269Z,26.20
2022-12-03T10:01:55.947Z,29.30
2022-12-03T10:04:24.859Z,27.30
2022-12-03T10:06:53.235Z,26.80
2022-12-03T10:09:27.506Z,30.90
2022-12-03T10:11:57.486Z,25.10
2022-12-03T10:14:26.362Z,26.90
2022-12-03T10:16:55.255Z,26.70
2022-12-03T10:19:29.032Z,28.30
2022-12-03T10:21:58.072Z,26.60
2022-12-03T10:24:32.381Z,23.70
2022-12-03T10:27:04.310Z,21.40
2022-12-03T10:29:35.498Z,18.70
2022-12-03T10:32:08.028Z,16.40
2022-12-03T10:34:37.776Z,20.80
2022-12-03T10:37:13.491Z,21.60
2022-12-03T10:39:56.857Z,19.90
2022-12-03T10:42:31.555Z,18.60
2022-12-03T10:45:19.576Z,18.70
2022-12-03T10:48:11.089Z,17.30
2022-12-03T10:50:48.702Z,15.40
2022-12-03T10:53:17.958Z,15.50
2022-12-03T10:55:47.866Z,15.40
2022-12-03T10:58:21.680Z,15.90
2022-12-03T11:00:52.030Z,16.30
2022-12-03T11:03:26.634Z,16.10
2022-12-03T11:05:56.549Z,14.40
2022-12-03T11:08:28.000Z,16.50
2022-12-03T11:11:07.338Z,15.00
2022-12-03T11:13:35.594Z,14.40
2022-12-03T11:16:08.389Z,15.20
2022-12-03T11:18:36.875Z,13.20
2022-12-03T11:21:17.002Z,14.80
2022-12-03T11:23:46.020Z,13.70
2022-12-03T11:26:19.497Z,13.60
2022-12-03T11:28:53.144Z,14.00
2022-12-03T11:31:46.712Z,13.60
2022-12-03T11:34:18.192Z,13.00
2022-12-03T11:37:11.020Z,14.40
2022-12-03T11:39:45.013Z,14.70
2022-12-03T11:42:28.129Z,14.50
2022-12-03T11:45:19.122Z,13.20
2022-12-03T11:48:02.317Z,14.30
2022-12-03T11:50:40.100Z,15.90
2022-12-03T11:53:13.337Z,15.20
2022-12-03T11:55:47.375Z,13.80
2022-12-03T11:58:30.605Z,15.80
2022-12-03T12:01:01.777Z,14.10
2022-12-03T12:03:35.922Z,13.30
2022-12-03T12:06:09.824Z,14.50
2022-12-03T12:08:59.229Z,15.30
2022-12-03T12:11:32.711Z,13.30
2022-12-03T12:14:04.941Z,13.40
2022-12-03T12:16:50.851Z,13.40
2022-12-03T12:20:10.608Z,13.60
2022-12-03T12:22:39.511Z,13.70
2022-12-03T12:25:29.613Z,11.20
2022-12-03T12:27:57.883Z,13.00
2022-12-03T12:30:26.193Z,13.70
2022-12-03T12:33:33.365Z,14.60
2022-12-03T12:36:08.346Z,13.70
2022-12-03T12:38:36.664Z,12.90
2022-12-03T12:41:10.038Z,13.30
2022-12-03T12:43:39.673Z,13.90
2022-12-03T12:46:46.167Z,14.60
2022-12-03T12:49:02.432Z,13.40
2022-12-03T12:51:30.917Z,14.70
2022-12-03T12:53:59.215Z,14.00
2022-12-03T12:56:32.282Z,14.30
2022-12-03T12:59:15.745Z,15.90
2022-12-03T13:01:46.012Z,15.60
2022-12-03T13:04:17.101Z,14.50
2022-12-03T13:09:21.813Z,12.50
2022-12-03T13:11:54.497Z,15.20
2022-12-03T13:14:24.162Z,15.70
2022-12-03T13:16:55.372Z,15.20
2022-12-03T13:19:29.644Z,14.10
2022-12-03T13:22:02.005Z,17.20
2022-12-03T13:24:43.943Z,16.20
2022-12-03T13:27:17.886Z,17.40
2022-12-03T13:30:00.831Z,17.40
2022-12-03T13:32:35.082Z,17.60
2022-12-03T13:35:12.220Z,15.70
2022-12-03T13:37:40.506Z,14.40
2022-12-03T13:40:35.085Z,16.50
2022-12-03T13:43:12.843Z,16.70
2022-12-03T13:45:44.232Z,16.60
2022-12-03T13:48:21.790Z,14.10
2022-12-03T13:50:52.877Z,16.70
2022-12-03T13:53:37.621Z,15.20
2022-12-03T13:56:21.037Z,17.60
2022-12-03T13:58:49.448Z,18.00
2022-12-03T14:01:17.818Z,18.80
2022-12-03T14:03:46.215Z,16.80
2022-12-03T14:06:14.594Z,15.10
2022-12-03T14:08:42.914Z,17.30
2022-12-03T14:11:31.292Z,16.00
2022-12-03T14:13:59.679Z,16.90
2022-12-03T14:16:28.061Z,16.60
2022-12-03T14:18:56.319Z,16.60
2022-12-03T14:21:24.608Z,18.60
2022-12-03T14:23:53.092Z,15.90
2022-12-03T14:26:21.326Z,14.50
2022-12-03T14:28:49.570Z,14.60
2022-12-03T14:31:17.888Z,14.50
2022-12-03T14:33:46.201Z,15.00
2022-12-03T14:36:14.480Z,17.40
2022-12-03T14:38:42.813Z,16.60
2022-12-03T14:41:30.950Z,16.40
2022-12-03T14:43:59.162Z,13.20
2022-12-03T14:46:27.429Z,15.80
2022-12-03T14:48:55.669Z,16.90
2022-12-03T14:51:23.969Z,15.80
2022-12-03T14:53:52.223Z,14.60
2022-12-03T14:56:20.673Z,15.60
2022-12-03T14:58:48.940Z,16.20
2022-12-03T15:01:17.237Z,17.10
2022-12-03T15:03:45.571Z,17.30
2022-12-03T15:06:13.828Z,16.40
2022-12-03T15:08:42.183Z,16.60
2022-12-03T15:11:10.598Z,20.00
2022-12-03T15:13:38.954Z,20.10
2022-12-03T15:16:07.686Z,17.70
2022-12-03T15:18:35.991Z,15.40
2022-12-03T15:21:04.254Z,16.80
2022-12-03T15:23:32.529Z,17.30
2022-12-03T15:26:00.895Z,13.60
2022-12-03T15:28:29.211Z,15.30
2022-12-03T15:30:57.738Z,18.00
2022-12-03T15:33:26.121Z,17.80
2022-12-03T15:35:54.447Z,18.70
2022-12-03T15:38:22.770Z,17.20
2022-12-03T15:40:51.057Z,17.90
2022-12-03T15:43:19.679Z,18.20
2022-12-03T15:45:48.123Z,19.70
2022-12-03T15:48:16.463Z,20.30
2022-12-03T15:50:44.643Z,18.90
2022-12-03T15:53:12.913Z,18.60
2022-12-03T15:55:41.214Z,19.50
2022-12-03T15:58:09.543Z,18.90
2022-12-03T16:00:37.904Z,17.70
2022-12-03T16:03:06.194Z,16.20
2022-12-03T16:05:34.518Z,17.10
2022-12-03T16:08:02.970Z,17.50
2022-12-03T16:10:31.474Z,17.90
2022-12-03T16:12:59.621Z,19.10
2022-12-03T16:15:27.834Z,19.50
2022-12-03T16:17:56.085Z,18.30
2022-12-03T16:20:24.313Z,17.60
2022-12-03T16:22:52.677Z,20.40
2022-12-03T16:25:21.060Z,18.80
2022-12-03T16:27:49.399Z,17.30
2022-12-03T16:30:18.203Z,17.40
2022-12-03T16:32:46.485Z,18.40
2022-12-03T16:35:14.853Z,17.60
2022-12-03T16:37:43.126Z,17.80
2022-12-03T16:40:12.187Z,18.40
2022-12-03T16:42:40.951Z,18.70
2022-12-03T16:45:09.767Z,17.40
2022-12-03T16:47:38.326Z,17.60
2022-12-03T16:50:11.594Z,17.00
2022-12-03T16:52:42.835Z,15.60
2022-12-03T16:55:11.121Z,14.60
2022-12-03T16:57:39.372Z,16.40
2022-12-03T17:00:08.260Z,17.20
2022-12-03T17:02:36.589Z,17.50
2022-12-03T17:05:05.174Z,15.50
2022-12-03T17:07:33.486Z,15.10
2022-12-03T17:10:01.761Z,17.00
2022-12-03T17:12:42.205Z,16.70
2022-12-03T17:15:16.399Z,16.40
2022-12-03T17:17:44.686Z,16.80
2022-12-03T17:20:14.883Z,19.30
2022-12-03T17:22:43.308Z,16.40
2022-12-03T17:25:11.881Z,14.80
2022-12-03T17:27:45.174Z,16.10
2022-12-03T17:30:14.605Z,15.40
2022-12-03T17:32:43.440Z,15.80
2022-12-03T17:35:12.427Z,15.90
2022-12-03T17:37:41.067Z,18.60
2022-12-03T17:40:11.852Z,18.30
2022-12-03T17:42:40.118Z,17.40
2022-12-03T17:45:09.152Z,15.50
2022-12-03T17:47:37.505Z,16.00
2022-12-03T17:50:07.509Z,16.40
2022-12-03T17:52:35.809Z,16.00
2022-12-03T17:55:16.288Z,16.10
2022-12-03T17:57:52.187Z,12.40
2022-12-03T18:00:20.569Z,12.70
2022-12-03T18:02:48.819Z,13.00
2022-12-03T18:05:17.159Z,13.60
2022-12-03T18:07:45.498Z,11.40
2022-12-03T18:10:13.690Z,12.00
2022-12-03T18:12:41.939Z,13.00
2022-12-03T18:15:10.720Z,12.80
2022-12-03T18:17:39.004Z,13.50
2022-12-03T18:20:07.753Z,13.90
2022-12-03T18:22:36.427Z,12.90
2022-12-03T18:25:05.360Z,16.00
2022-12-03T18:27:33.973Z,13.40
2022-12-03T18:30:02.311Z,15.20
2022-12-03T18:32:30.661Z,13.40
2022-12-03T18:34:58.925Z,12.90
2022-12-03T18:37:28.972Z,12.50
2022-12-03T18:39:58.301Z,14.00
2022-12-03T18:42:27.244Z,13.50
2022-12-03T18:44:56.674Z,11.90
2022-12-03T18:47:28.901Z,12.40
2022-12-03T18:49:57.769Z,12.50
2022-12-03T18:52:26.335Z,12.70
2022-12-03T18:54:55.484Z,12.00
2022-12-03T18:57:23.983Z,11.50
2022-12-03T18:59:52.281Z,10.60
2022-12-03T19:05:10.521Z,12.60
2022-12-03T19:07:38.938Z,12.70
2022-12-03T19:10:07.999Z,12.60
2022-12-03T19:12:37.280Z,11.30
2022-12-03T19:15:06.356Z,12.00
2022-12-03T19:17:34.653Z,13.20
2022-12-03T19:20:03.386Z,13.80
2022-12-03T19:22:31.703Z,10.60
2022-12-03T19:24:59.963Z,12.00
2022-12-03T19:27:31.833Z,13.30
2022-12-03T19:30:00.116Z,12.10
2022-12-03T19:32:28.463Z,12.80
2022-12-03T19:34:56.750Z,12.40
2022-12-03T19:37:25.140Z,12.90
2022-12-03T19:39:54.650Z,12.20
2022-12-03T19:42:23.238Z,13.70
2022-12-03T19:44:51.491Z,13.10
2022-12-03T19:47:20.037Z,13.60
2022-12-03T19:49:48.322Z,13.40
2022-12-03T19:52:16.592Z,12.30
2022-12-03T19:54:44.873Z,12.80
2022-12-03T19:57:15.769Z,12.00
2022-12-03T19:59:46.447Z,8.30
2022-12-03T20:02:14.789Z,12.00
2022-12-03T20:04:43.577Z,12.10
2022-12-03T20:07:11.782Z,10.80
2022-12-03T20:09:40.014Z,13.20
2022-12-03T20:12:08.201Z,13.20
2022-12-03T20:14:36.443Z,12.80
2022-12-03T20:17:04.791Z,12.00
2022-12-03T20:19:33.086Z,12.90
2022-12-03T20:22:03.017Z,12.80
2022-12-03T20:24:31.488Z,11.40
2022-12-03T20:26:59.725Z,11.50
2022-12-03T20:29:27.921Z,11.80
2022-12-03T20:31:56.358Z,8.20
2022-12-03T20:34:24.711Z,9.50
2022-12-03T20:36:52.955Z,10.90
2022-12-03T20:39:21.194Z,11.40
2022-12-03T20:41:49.710Z,11.10
2022-12-03T20:44:20.992Z,11.10
2022-12-03T20:46:49.704Z,11.40
2022-12-03T20:49:18.283Z,12.30
2022-12-03T20:51:47.432Z,14.80
2022-12-03T20:54:15.733Z,12.10
2022-12-03T20:56:44.064Z,11.70
2022-12-03T20:59:15.543Z,10.60
2022-12-03T21:04:18.214Z,10.50
2022-12-03T21:06:46.516Z,11.20
2022-12-03T21:09:14.788Z,12.20
2022-12-03T21:11:43.908Z,11.90
2022-12-03T21:14:12.586Z,10.40
2022-12-03T21:19:31.352Z,10.30
2022-12-03T21:22:00.434Z,10.50
2022-12-03T21:24:30.316Z,11.20
2022-12-03T21:26:58.977Z,9.60
2022-12-03T21:29:27.171Z,10.70
2022-12-03T21:31:55.427Z,11.30
2022-12-03T21:34:24.236Z,13.00
2022-12-03T21:36:52.960Z,11.80
2022-12-03T21:39:21.265Z,9.70
2022-12-03T21:42:36.170Z,10.40
2022-12-03T21:44:38.583Z,9.10
2022-12-03T21:47:12.689Z,10.90
2022-12-03T21:49:43.346Z,10.90
2022-12-03T21:52:11.979Z,12.80
2022-12-03T21:54:40.215Z,11.90
2022-12-03T21:57:08.556Z,10.90
2022-12-03T21:59:36.874Z,10.00
2022-12-03T22:02:05.316Z,9.70
2022-12-03T22:04:33.753Z,10.50
2022-12-03T22:07:02.368Z,14.10
2022-12-03T22:09:31.870Z,12.30
2022-12-03T22:12:01.526Z,10.20
2022-12-03T22:14:30.576Z,10.90
2022-12-03T22:17:02.452Z,10.30
2022-12-03T22:19:31.796Z,11.20
2022-12-03T22:22:00.695Z,10.20
2022-12-03T22:24:29.504Z,10.00
2022-12-03T22:26:57.857Z,10.80
2022-12-03T22:29:26.152Z,11.20
2022-12-03T22:31:54.484Z,12.60
2022-12-03T22:34:22.759Z,11.50
2022-12-03T22:36:50.962Z,10.20
2022-12-03T22:39:19.255Z,10.50
2022-12-03T22:41:47.547Z,9.20
2022-12-03T22:44:15.897Z,9.70
2022-12-03T22:46:44.343Z,11.00
2022-12-03T22:49:13.760Z,11.20
2022-12-03T22:51:46.370Z,10.40
2022-12-03T22:54:18.160Z,8.90
2022-12-03T22:56:49.213Z,11.40
2022-12-03T22:59:17.564Z,9.50
2022-12-03T23:01:45.950Z,9.60
2022-12-03T23:04:14.468Z,10.40
2022-12-03T23:06:43.736Z,11.70
2022-12-03T23:09:12.041Z,11.40
2022-12-03T23:11:40.416Z,9.60
2022-12-03T23:14:08.626Z,10.30
2022-12-03T23:16:37.032Z,10.40
2022-12-03T23:19:05.479Z,10.30
2022-12-03T23:21:35.289Z,9.70
2022-12-03T23:24:05.539Z,9.70
2022-12-03T23:26:36.852Z,10.50
2022-12-03T23:29:06.724Z,10.20
2022-12-03T23:31:35.696Z,9.30
2022-12-03T23:34:04.724Z,10.10
2022-12-03T23:36:36.042Z,9.60
2022-12-03T23:41:36.231Z,7.60
2022-12-03T23:44:07.078Z,8.70
2022-12-03T23:46:39.624Z,8.90
2022-12-03T23:49:07.987Z,8.10
2022-12-03T23:51:36.932Z,8.80
2022-12-03T23:54:05.202Z,9.10
2022-12-03T23:56:37.315Z,8.70
2022-12-03T23:59:05.718Z,8.60
